LGZA/ZTH METAR and TAF weather

Enter ICAO airport designator
Station Type Date Time Source
LGZA METAR 2019/08/22 05:20 UTC NOAA

LGZA 220520Z 32005KT CAVOK 24/20 Q1016


Station Type Date Time Source
LGZA Decoded METAR 2019/08/22 05:20 UTC NOAA

Station name not available
Aug 22, 2019 - 01:20 AM EDT / 2019.08.22 0520 UTC
Wind: from the NW (320 degrees) at 6 MPH (5 KT):0
Visibility: greater than 7 mile(s):0
Temperature: 75 F (24 C)
Dew Point: 68 F (20 C)
Relative Humidity: 78%
Pressure (altimeter): 30.00 in. Hg (1016 hPa)
ob: LGZA 220520Z 32005KT CAVOK 24/20 Q1016
cycle: 5

Station Type Date Time Source
LGZA TAF 2011/11/25 15:06 UTC NOAA

TAF TAF LGZA 251400Z 2515/2603 02012KT 9999 FEW025 SCT035 BKN080 PROB30
TEMPO 2518/2603 8000 RA PROB30 2522/2603 5000 BR SCT010

Example: see airport list